Time;durP1;ratioP1;P1;durP2;ratioP2;P2;SDS_P1;SDS_P2;PMS_P1;PMS_P2;Temp;Humidity;BMP_temperature;BMP_pressure;BME280_temperature;BME280_humidity;BME280_pressure;Samples;Min_cycle;Max_cycle;Signal;HPM_P1;HPM_P2
2022/07/05 00:00:44;;;;;;;0.00;0.00;;;;;;;16.84;92.26;101221.31;5000474;28;20052;-63
2022/07/05 00:03:10;;;;;;;0.00;0.00;;;;;;;16.83;92.46;101222.47;5024835;28;20022;-62
2022/07/05 00:05:36;;;;;;;0.00;0.00;;;;;;;16.97;91.87;101225.25;5024184;28;20036;-62
2022/07/05 00:08:03;;;;;;;0.00;0.00;;;;;;;16.72;91.83;101227.88;5024516;28;20034;-62
2022/07/05 00:10:29;;;;;;;0.10;0.10;;;;;;;16.96;91.44;101219.00;5019758;28;20083;-61
2022/07/05 00:12:55;;;;;;;0.00;0.00;;;;;;;17.10;90.82;101223.72;5020789;28;20034;-62
2022/07/05 00:15:21;;;;;;;0.00;0.00;;;;;;;17.01;91.02;101226.03;5024932;28;20052;-63
2022/07/05 00:17:48;;;;;;;0.10;0.10;;;;;;;17.17;91.15;101223.72;5019085;28;20059;-63
2022/07/05 00:20:13;;;;;;;0.00;0.00;;;;;;;16.95;91.57;101225.63;5031364;28;20036;-63
2022/07/05 00:22:39;;;;;;;0.00;0.00;;;;;;;16.89;91.97;101226.38;5028824;28;20018;-62
2022/07/05 00:25:05;;;;;;;0.10;0.10;;;;;;;17.04;90.57;101214.38;5025174;28;20095;-62
2022/07/05 00:27:30;;;;;;;0.10;0.10;;;;;;;17.04;89.91;101215.16;5024655;28;20030;-63
2022/07/05 00:29:56;;;;;;;0.00;0.00;;;;;;;16.88;91.49;101217.41;5012908;28;20512;-63
2022/07/05 00:32:22;;;;;;;0.10;0.10;;;;;;;16.83;91.72;101220.53;5027887;28;20082;-62
2022/07/05 00:34:47;;;;;;;0.00;0.00;;;;;;;16.64;92.42;101218.13;5028829;28;20056;-62
2022/07/05 00:37:13;;;;;;;0.10;0.10;;;;;;;16.42;93.73;101229.22;5005043;28;20029;-63
2022/07/05 00:39:38;;;;;;;0.00;0.00;;;;;;;16.66;92.92;101229.38;5027391;28;20033;-63
2022/07/05 00:42:04;;;;;;;0.00;0.00;;;;;;;16.86;90.70;101221.72;5029906;28;20044;-63
2022/07/05 00:44:34;;;;;;;0.00;0.00;;;;;;;16.84;91.85;101221.31;5028040;28;20491;-62
2022/07/05 00:47:01;;;;;;;0.00;0.00;;;;;;;16.45;92.91;101236.63;5024708;28;20044;-63
2022/07/05 00:49:27;;;;;;;0.40;0.40;;;;;;;16.50;92.92;101225.41;5012228;28;20029;-62
2022/07/05 00:51:52;;;;;;;0.00;0.00;;;;;;;16.53;92.76;101217.25;5028878;28;20132;-60
2022/07/05 00:54:18;;;;;;;0.00;0.00;;;;;;;16.46;93.34;101232.72;5071688;22;20128;-62
2022/07/05 00:56:44;;;;;;;0.00;0.00;;;;;;;16.40;93.25;101218.72;5059646;28;20032;-63
2022/07/05 00:59:10;;;;;;;0.00;0.00;;;;;;;16.43;92.60;101225.34;5062615;28;20040;-62
2022/07/05 01:01:35;;;;;;;0.00;0.00;;;;;;;16.62;92.97;101222.38;5075540;28;20044;-61
2022/07/05 01:04:01;;;;;;;0.00;0.00;;;;;;;16.69;91.88;101225.91;5072618;28;20025;-62
2022/07/05 01:06:26;;;;;;;0.00;0.00;;;;;;;16.73;91.33;101221.25;5070607;28;20074;-61
2022/07/05 01:08:52;;;;;;;0.00;0.00;;;;;;;16.66;91.92;101225.88;5051645;28;20040;-60
2022/07/05 01:11:18;;;;;;;0.00;0.00;;;;;;;16.48;92.32;101217.63;5045806;28;20041;-62
2022/07/05 01:13:43;;;;;;;0.32;0.10;;;;;;;16.79;91.82;101218.94;5050617;28;20496;-62
2022/07/05 01:16:09;;;;;;;0.00;0.00;;;;;;;16.76;91.30;101215.03;5066206;28;20488;-62
2022/07/05 01:18:35;;;;;;;0.00;0.00;;;;;;;16.61;92.01;101223.50;5044227;28;20028;-62
2022/07/05 01:21:02;;;;;;;0.00;0.00;;;;;;;16.54;92.65;101218.03;5050258;28;20047;-62
2022/07/05 01:23:30;;;;;;;0.00;0.00;;;;;;;16.24;93.87;101221.72;5042882;28;20307;-62
2022/07/05 01:25:58;;;;;;;0.10;0.00;;;;;;;16.34;94.50;101220.22;5048841;28;20515;-62
2022/07/05 01:28:24;;;;;;;7.13;1.15;;;;;;;16.47;94.15;101224.22;5064381;28;20040;-61
2022/07/05 01:30:50;;;;;;;0.00;0.00;;;;;;;16.45;93.42;101229.25;5072012;28;20074;-62
2022/07/05 01:33:16;;;;;;;0.00;0.00;;;;;;;16.57;93.46;101228.94;5071005;28;20040;-63
2022/07/05 01:35:42;;;;;;;0.05;0.05;;;;;;;16.72;92.57;101227.09;5049033;28;20036;-62
2022/07/05 01:38:10;;;;;;;0.00;0.00;;;;;;;16.86;91.70;101232.59;5045076;28;20024;-62
2022/07/05 01:40:36;;;;;;;0.00;0.00;;;;;;;16.93;90.96;101219.00;5066421;28;20066;-62
2022/07/05 01:43:02;;;;;;;0.00;0.00;;;;;;;17.06;90.44;101223.72;5067962;28;20036;-63
2022/07/05 01:45:41;;;;;;;0.03;0.03;;;;;;;16.56;91.25;101221.94;5071774;28;20034;-62
2022/07/05 01:48:13;;;;;;;0.00;0.00;;;;;;;16.52;92.76;101223.88;5051287;28;20047;-62
2022/07/05 01:50:53;;;;;;;0.00;0.00;;;;;;;16.72;92.29;101225.16;5053196;28;20534;-63
2022/07/05 01:53:24;;;;;;;0.00;0.00;;;;;;;16.66;92.13;101225.88;5068343;28;20028;-62
2022/07/05 01:55:50;;;;;;;0.00;0.00;;;;;;;16.51;93.01;101222.31;5070454;28;20123;-62
2022/07/05 01:58:16;;;;;;;0.00;0.00;;;;;;;16.41;93.20;101216.78;5052596;28;20032;-62
2022/07/05 02:00:51;;;;;;;0.00;0.00;;;;;;;16.40;93.80;101223.38;5070636;28;20070;-62
2022/07/05 02:03:17;;;;;;;0.03;0.03;;;;;;;16.28;93.42;101225.25;5050638;28;20031;-63
2022/07/05 02:05:44;;;;;;;0.00;0.00;;;;;;;16.30;94.41;101218.66;5048317;28;20450;-63
2022/07/05 02:08:15;;;;;;;0.00;0.00;;;;;;;16.22;94.30;101221.31;5049950;28;20081;-61
2022/07/05 02:10:42;;;;;;;0.00;0.00;;;;;;;16.31;93.65;101215.56;5070269;28;20143;-62
2022/07/05 02:13:08;;;;;;;0.00;0.00;;;;;;;16.16;94.18;101230.22;5070195;28;20389;-62
2022/07/05 02:15:36;;;;;;;0.30;0.30;;;;;;;16.23;94.31;101224.84;5052707;28;20039;-61
2022/07/05 02:18:04;;;;;;;0.00;0.00;;;;;;;16.48;92.88;101217.63;5052916;28;20032;-63
2022/07/05 02:20:31;;;;;;;0.00;0.00;;;;;;;16.51;92.24;101224.25;5052605;28;20073;-61
2022/07/05 02:22:58;;;;;;;0.00;0.00;;;;;;;16.38;93.63;101225.69;5050598;28;20035;-63
2022/07/05 02:25:24;;;;;;;0.00;0.00;;;;;;;16.52;92.80;101225.81;5052020;28;20024;-63
2022/07/05 02:27:55;;;;;;;0.00;0.00;;;;;;;16.35;93.88;101234.63;5046459;28;20452;-61
2022/07/05 02:30:21;;;;;;;0.00;0.00;;;;;;;16.48;93.04;101227.69;5052627;28;20037;-63
2022/07/05 02:32:47;;;;;;;0.00;0.00;;;;;;;16.38;93.54;101234.63;5034348;28;20412;-63
2022/07/05 02:35:13;;;;;;;0.00;0.00;;;;;;;16.49;92.91;101234.75;5052195;28;20484;-61
2022/07/05 02:37:39;;;;;;;0.28;0.28;;;;;;;16.05;93.75;101229.34;5052091;28;20370;-63
2022/07/05 02:40:11;;;;;;;0.10;0.10;;;;;;;16.14;94.79;101235.25;5052983;28;20024;-62
2022/07/05 02:42:40;;;;;;;0.00;0.00;;;;;;;16.23;93.83;101239.22;5033883;28;20404;-62
2022/07/05 02:45:09;;;;;;;0.00;0.00;;;;;;;16.05;94.30;101240.22;5048601;28;20419;-63
2022/07/05 02:47:35;;;;;;;0.10;0.10;;;;;;;16.21;93.88;101230.66;5032566;28;20028;-61
2022/07/05 02:50:09;;;;;;;0.00;0.00;;;;;;;16.35;93.03;101235.41;5042745;28;20024;-61
2022/07/05 02:52:39;;;;;;;0.00;0.00;;;;;;;16.22;93.32;101239.56;5048944;28;20447;-63
2022/07/05 02:55:05;;;;;;;0.00;0.00;;;;;;;16.25;93.08;101238.81;5035981;28;20036;-62
2022/07/05 02:57:31;;;;;;;0.00;0.00;;;;;;;15.96;94.61;101246.00;5051065;28;20028;-61
2022/07/05 02:59:59;;;;;;;0.00;0.00;;;;;;;15.92;94.87;101231.59;5052588;28;20317;-62
2022/07/05 03:02:35;;;;;;;0.15;0.15;;;;;;;15.68;95.28;101247.69;5049186;28;20051;-61
2022/07/05 03:05:02;;;;;;;0.00;0.00;;;;;;;15.56;96.48;101247.97;5052327;28;20333;-62
2022/07/05 03:07:28;;;;;;;0.00;0.00;;;;;;;15.44;98.26;101248.22;5055556;28;20033;-62
2022/07/05 03:09:54;;;;;;;0.00;0.00;;;;;;;15.54;97.67;101248.34;5051041;28;20039;-61
2022/07/05 03:12:20;;;;;;;0.00;0.00;;;;;;;15.70;96.74;101246.16;5048653;28;20036;-59
2022/07/05 03:14:46;;;;;;;0.00;0.00;;;;;;;15.70;97.03;101254.28;5049183;28;20089;-60
2022/07/05 03:17:13;;;;;;;0.00;0.00;;;;;;;15.75;96.29;101251.25;5040459;28;20074;-62
2022/07/05 03:19:39;;;;;;;0.00;0.00;;;;;;;15.87;95.44;101256.38;5069290;28;20040;-64
2022/07/05 03:22:06;;;;;;;0.00;0.00;;;;;;;15.73;96.06;101255.50;5065656;28;20871;-64
2022/07/05 03:24:33;;;;;;;0.08;0.08;;;;;;;15.63;96.52;101256.94;5049546;28;20416;-64
2022/07/05 03:26:59;;;;;;;0.00;0.00;;;;;;;15.64;96.38;101244.16;5046116;28;20033;-62
2022/07/05 03:29:25;;;;;;;0.00;0.00;;;;;;;15.57;96.46;101258.44;5052421;28;20025;-63
2022/07/05 03:31:51;;;;;;;0.00;0.00;;;;;;;15.77;96.51;101254.38;5051930;28;20039;-62
2022/07/05 03:34:18;;;;;;;0.03;0.03;;;;;;;15.67;96.14;101248.84;5045092;28;20388;-63
2022/07/05 03:36:43;;;;;;;0.17;0.17;;;;;;;15.73;96.73;101253.56;5051778;28;20036;-63
2022/07/05 03:39:13;;;;;;;0.00;0.00;;;;;;;15.83;96.49;101249.38;5043986;28;20327;-64
2022/07/05 03:41:38;;;;;;;0.00;0.00;;;;;;;15.58;97.18;101253.81;5069836;28;20039;-64
2022/07/05 03:44:05;;;;;;;0.00;0.00;;;;;;;15.86;96.05;101260.28;5050717;28;20105;-63
2022/07/05 03:46:32;;;;;;;0.00;0.00;;;;;;;16.04;95.25;101269.34;5050693;28;20040;-64
2022/07/05 03:48:58;;;;;;;0.47;0.10;;;;;;;16.05;94.18;101262.75;5046617;28;20059;-64
2022/07/05 03:51:24;;;;;;;0.10;0.10;;;;;;;16.06;94.95;101264.31;5046914;28;20031;-64
2022/07/05 03:53:50;;;;;;;0.08;0.08;;;;;;;16.30;93.71;101262.16;5051688;28;20035;-64
2022/07/05 03:56:19;;;;;;;0.00;0.00;;;;;;;16.16;93.25;101255.44;5031786;28;20041;-64
2022/07/05 03:58:48;;;;;;;0.20;0.20;;;;;;;16.23;93.75;101257.44;5043810;28;20039;-64
2022/07/05 04:01:13;;;;;;;0.45;0.45;;;;;;;16.06;94.47;101253.47;5042636;28;20029;-63
2022/07/05 04:03:40;;;;;;;0.22;0.22;;;;;;;15.97;94.92;101257.63;5066091;28;20100;-64
2022/07/05 04:06:06;;;;;;;0.00;0.00;;;;;;;15.95;95.66;101257.25;5039954;28;20556;-64
2022/07/05 04:08:31;;;;;;;0.00;0.00;;;;;;;15.69;97.61;101255.47;5035888;28;20034;-64
2022/07/05 04:10:57;;;;;;;0.00;0.00;;;;;;;15.74;96.46;101252.41;5069616;28;20016;-64
2022/07/05 04:13:23;;;;;;;0.15;0.15;;;;;;;16.03;95.54;101264.28;5066264;28;20028;-64
2022/07/05 04:15:53;;;;;;;0.20;0.10;;;;;;;15.89;96.03;101259.50;5051506;28;20035;-64
2022/07/05 04:18:18;;;;;;;0.00;0.00;;;;;;;15.97;96.61;101263.06;5042185;28;20021;-64
2022/07/05 04:20:45;;;;;;;0.03;0.03;;;;;;;16.06;96.41;101263.53;5064992;28;20060;-63
2022/07/05 04:23:13;;;;;;;0.00;0.00;;;;;;;16.16;95.94;101258.16;5051454;28;20420;-64
2022/07/05 04:25:40;;;;;;;0.30;0.30;;;;;;;16.40;94.40;101262.22;5048433;28;20033;-64
2022/07/05 04:28:13;;;;;;;0.10;0.10;;;;;;;16.51;94.40;101262.34;5040797;28;20027;-64
2022/07/05 04:30:40;;;;;;;0.00;0.00;;;;;;;16.47;93.95;101266.94;5051609;28;20081;-65
2022/07/05 04:33:09;;;;;;;0.00;0.00;;;;;;;16.49;94.14;101264.66;5050749;28;20032;-63
2022/07/05 04:35:35;;;;;;;0.00;0.00;;;;;;;16.71;93.45;101264.38;5051903;28;20024;-64
2022/07/05 04:38:01;;;;;;;0.00;0.00;;;;;;;16.84;92.95;101270.28;5064001;28;20163;-63
2022/07/05 04:40:27;;;;;;;0.00;0.00;;;;;;;16.93;92.54;101268.78;5051720;28;20107;-64
2022/07/05 04:42:53;;;;;;;0.00;0.00;;;;;;;16.95;91.40;101276.53;5069031;28;20025;-63
2022/07/05 04:45:19;;;;;;;0.00;0.00;;;;;;;17.10;91.01;101273.50;5050763;28;20030;-63
2022/07/05 04:47:46;;;;;;;0.00;0.00;;;;;;;17.21;90.12;101280.94;5031647;28;20052;-64
2022/07/05 04:50:12;;;;;;;0.00;0.00;;;;;;;17.30;89.72;101275.91;5044788;28;20032;-65
2022/07/05 04:52:38;;;;;;;0.30;0.30;;;;;;;17.24;89.51;101274.72;5069467;28;20044;-64
2022/07/05 04:55:04;;;;;;;0.00;0.00;;;;;;;17.27;89.16;101282.09;5069609;28;20063;-64
2022/07/05 04:57:40;;;;;;;0.00;0.00;;;;;;;17.33;88.47;101284.06;5068498;28;20037;-63
2022/07/05 05:00:07;;;;;;;0.03;0.03;;;;;;;17.44;88.77;101289.56;5069424;28;20089;-64
2022/07/05 05:02:33;;;;;;;0.73;0.30;;;;;;;17.50;88.26;101288.81;5066693;28;20374;-64
2022/07/05 05:04:58;;;;;;;0.00;0.00;;;;;;;17.63;88.06;101295.47;5070526;28;20062;-64
2022/07/05 05:07:24;;;;;;;0.00;0.00;;;;;;;17.68;88.64;101292.34;5072319;28;20392;-64
2022/07/05 05:09:50;;;;;;;0.00;0.00;;;;;;;17.72;87.85;101297.81;5072639;28;20036;-64
2022/07/05 05:12:15;;;;;;;0.20;0.10;;;;;;;17.76;88.27;101296.66;5071623;28;20024;-64
2022/07/05 05:14:40;;;;;;;0.00;0.00;;;;;;;17.92;86.40;101307.94;5049488;28;20040;-64
2022/07/05 05:17:06;;;;;;;0.00;0.00;;;;;;;18.30;86.18;101305.63;5071872;28;20051;-65
2022/07/05 05:19:31;;;;;;;0.10;0.10;;;;;;;19.05;83.40;101315.25;5069693;28;20039;-65
2022/07/05 05:21:57;;;;;;;0.00;0.00;;;;;;;19.90;79.38;101304.66;5071982;28;20072;-64
2022/07/05 05:24:23;;;;;;;0.10;0.10;;;;;;;20.55;75.40;101310.78;5072543;28;20033;-64
2022/07/05 05:26:49;;;;;;;0.00;0.00;;;;;;;21.27;72.40;101311.56;5065051;28;20040;-64
2022/07/05 05:29:14;;;;;;;0.10;0.00;;;;;;;21.83;69.31;101323.72;5069029;28;20385;-65
2022/07/05 05:31:40;;;;;;;0.05;0.05;;;;;;;21.83;66.93;101312.75;5068497;28;20083;-65
2022/07/05 05:34:05;;;;;;;0.20;0.20;;;;;;;21.51;69.21;101324.91;5064928;28;20028;-65
2022/07/05 05:36:31;;;;;;;0.30;0.30;;;;;;;21.68;69.45;101314.13;5071627;28;20037;-64
2022/07/05 05:38:56;;;;;;;0.00;0.00;;;;;;;22.04;66.45;101324.16;5072313;28;20037;-65
2022/07/05 05:41:22;;;;;;;1.65;0.47;;;;;;;22.54;65.11;101321.34;5072513;28;20043;-65
2022/07/05 05:43:47;;;;;;;0.55;0.47;;;;;;;22.73;64.11;101323.38;5072079;28;20147;-64
2022/07/05 05:46:13;;;;;;;1.02;0.65;;;;;;;22.88;64.29;101321.91;5071731;28;20416;-66
2022/07/05 05:48:38;;;;;;;0.10;0.10;;;;;;;23.13;62.14;101324.19;5069460;28;20111;-65
2022/07/05 05:51:04;;;;;;;0.10;0.10;;;;;;;23.17;61.95;101324.88;5064779;28;20040;-65
2022/07/05 05:53:30;;;;;;;0.05;0.05;;;;;;;22.83;62.14;101333.41;5071459;28;20078;-65
2022/07/05 05:55:56;;;;;;;0.10;0.00;;;;;;;22.38;63.73;101332.22;5071709;28;20050;-62
2022/07/05 05:58:26;;;;;;;0.47;0.47;;;;;;;22.44;64.73;101333.28;5071896;28;20044;-62
2022/07/05 06:00:52;;;;;;;0.00;0.00;;;;;;;22.63;64.06;101329.84;5054067;28;20033;-64
2022/07/05 06:03:23;;;;;;;0.03;0.03;;;;;;;22.57;63.83;101333.50;5072078;28;20051;-62
2022/07/05 06:05:49;;;;;;;0.00;0.00;;;;;;;22.89;63.16;101334.47;5070102;28;20039;-65
2022/07/05 06:08:14;;;;;;;0.20;0.05;;;;;;;22.93;62.75;101326.16;5072129;28;20489;-66
2022/07/05 06:10:40;;;;;;;0.00;0.00;;;;;;;23.28;63.33;101341.94;5070591;28;20029;-65
2022/07/05 06:13:08;;;;;;;0.63;0.20;;;;;;;23.45;61.09;101351.03;5053410;28;20123;-66
2022/07/05 06:15:35;;;;;;;0.10;0.10;;;;;;;23.64;59.87;101347.44;5053843;28;20548;-66
2022/07/05 06:18:00;;;;;;;0.00;0.00;;;;;;;23.83;58.38;101357.63;5068027;28;20033;-65
2022/07/05 06:20:31;;;;;;;0.00;0.00;;;;;;;23.95;57.46;101351.47;5071028;28;20035;-63
2022/07/05 06:22:58;;;;;;;0.00;0.00;;;;;;;23.88;56.71;101351.63;5071578;28;20036;-65
2022/07/05 06:25:24;;;;;;;0.32;0.15;;;;;;;23.91;55.67;101357.06;5070954;28;20103;-64
2022/07/05 06:27:55;;;;;;;0.00;0.00;;;;;;;23.98;55.95;101362.38;5068189;28;20115;-64
2022/07/05 06:30:22;;;;;;;0.03;0.03;;;;;;;23.87;56.26;101363.84;5066286;28;20264;-63
2022/07/05 06:32:49;;;;;;;0.10;0.10;;;;;;;23.91;55.89;101356.28;5068205;28;20044;-63
2022/07/05 06:35:16;;;;;;;0.15;0.15;;;;;;;23.79;57.30;101362.47;5064352;28;20032;-64
2022/07/05 06:37:42;;;;;;;0.00;0.00;;;;;;;23.79;56.66;101360.47;5068329;28;20074;-63
2022/07/05 06:40:10;;;;;;;0.00;0.00;;;;;;;23.91;55.22;101357.06;5065264;28;20036;-64
2022/07/05 06:42:35;;;;;;;0.00;0.00;;;;;;;23.99;56.04;101368.66;5062316;28;20013;-63
2022/07/05 06:45:02;;;;;;;0.00;0.00;;;;;;;23.76;54.65;101355.84;5068967;28;20383;-63
2022/07/05 06:47:28;;;;;;;0.00;0.00;;;;;;;23.65;56.06;101360.03;5063869;28;20090;-63
2022/07/05 06:49:53;;;;;;;0.20;0.20;;;;;;;23.67;55.77;101363.13;5065066;28;20443;-63
2022/07/05 06:52:19;;;;;;;0.20;0.20;;;;;;;23.63;55.00;101365.19;5070528;28;20556;-63
2022/07/05 06:54:44;;;;;;;0.00;0.00;;;;;;;23.45;55.65;101362.03;5098736;22;20602;-61
2022/07/05 06:57:10;;;;;;;0.00;0.00;;;;;;;23.49;56.06;101368.22;5089469;28;20069;-61
2022/07/05 06:59:36;;;;;;;2.47;0.40;;;;;;;23.63;54.56;101354.19;5072684;28;20040;-61
2022/07/05 07:02:02;;;;;;;0.00;0.00;;;;;;;23.72;54.72;101360.63;5086081;28;20094;-61
2022/07/05 07:04:27;;;;;;;0.00;0.00;;;;;;;23.80;54.98;101359.28;5081183;28;20033;-61
2022/07/05 07:06:53;;;;;;;0.00;0.00;;;;;;;23.96;55.25;101370.28;5060678;28;20689;-61
2022/07/05 07:09:18;;;;;;;0.00;0.00;;;;;;;24.08;55.24;101366.91;5081428;28;20024;-62
2022/07/05 07:11:45;;;;;;;0.00;0.00;;;;;;;24.17;54.11;101369.84;5080869;28;20101;-60
2022/07/05 07:14:11;;;;;;;0.10;0.00;;;;;;;24.29;53.67;101368.38;5072785;28;20074;-61
2022/07/05 07:16:36;;;;;;;0.00;0.00;;;;;;;24.40;53.30;101371.63;5075047;28;20488;-60
2022/07/05 07:19:02;;;;;;;0.00;0.00;;;;;;;24.48;52.71;101362.00;5070338;28;20051;-61
2022/07/05 07:21:28;;;;;;;0.00;0.00;;;;;;;24.55;52.85;101356.28;5069873;28;20199;-56
2022/07/05 07:23:53;;;;;;;0.00;0.00;;;;;;;24.53;51.98;101353.19;5047239;28;20106;-57
2022/07/05 07:26:19;;;;;;;0.03;0.03;;;;;;;24.55;52.53;101359.03;5070176;28;20103;-56
2022/07/05 07:28:44;;;;;;;0.00;0.00;;;;;;;24.70;50.92;101360.22;5069811;28;20059;-60
2022/07/05 07:31:10;;;;;;;0.00;0.00;;;;;;;24.79;50.84;101360.41;5047789;28;20028;-57
2022/07/05 07:33:36;;;;;;;0.00;0.00;;;;;;;24.78;51.26;101358.06;5050416;28;20024;-57
2022/07/05 07:36:02;;;;;;;0.00;0.00;;;;;;;24.75;51.14;101354.22;5069452;28;20075;-59
2022/07/05 07:38:28;;;;;;;0.00;0.00;;;;;;;24.77;49.95;101354.56;5051429;28;20032;-58
2022/07/05 07:40:53;;;;;;;0.00;0.00;;;;;;;24.80;49.50;101355.66;5071058;28;20089;-55
2022/07/05 07:43:19;;;;;;;0.45;0.20;;;;;;;24.93;50.00;101357.25;5069149;28;20028;-61
2022/07/05 07:45:44;;;;;;;0.00;0.00;;;;;;;24.96;48.85;101359.16;5071403;28;20020;-58
2022/07/05 07:48:10;;;;;;;0.00;0.00;;;;;;;24.93;47.33;101360.00;5070375;28;20512;-60
2022/07/05 07:50:35;;;;;;;0.73;0.08;;;;;;;25.11;47.94;101356.75;5066568;28;20082;-60
2022/07/05 07:53:01;;;;;;;0.00;0.00;;;;;;;25.15;48.09;101365.72;5066758;28;20101;-60
2022/07/05 07:55:27;;;;;;;0.32;0.10;;;;;;;25.18;48.69;101358.56;5060646;28;20070;-58
2022/07/05 07:57:52;;;;;;;0.32;0.20;;;;;;;25.27;48.27;101362.22;5069785;28;20040;-60
2022/07/05 08:00:18;;;;;;;0.00;0.00;;;;;;;25.30;49.04;101366.84;5066082;28;20409;-61
2022/07/05 08:02:44;;;;;;;4.38;0.65;;;;;;;25.33;49.27;101363.22;5065238;28;20036;-60
2022/07/05 08:05:10;;;;;;;0.00;0.00;;;;;;;25.45;48.59;101354.25;5069054;28;20047;-59
2022/07/05 08:07:36;;;;;;;0.00;0.00;;;;;;;25.54;47.84;101359.09;5078203;28;20070;-57
2022/07/05 08:10:06;;;;;;;0.00;0.00;;;;;;;25.78;46.06;101358.31;5069216;28;20041;-61
2022/07/05 08:12:33;;;;;;;0.00;0.00;;;;;;;25.83;46.52;101365.28;5066105;28;20039;-60
2022/07/05 08:14:59;;;;;;;0.47;0.35;;;;;;;25.94;46.07;101366.50;5070678;28;20025;-57
2022/07/05 08:17:24;;;;;;;0.00;0.00;;;;;;;25.80;45.96;101361.41;5075348;28;20043;-58
2022/07/05 08:22:34;;;;;;;0.00;0.00;;;;;;;26.29;45.22;101377.66;5068804;28;20296;-58
2022/07/05 08:25:00;;;;;;;0.10;0.10;;;;;;;26.43;44.85;101375.22;5059771;28;20021;-59
2022/07/05 08:27:25;;;;;;;0.00;0.00;;;;;;;26.50;43.62;101368.69;5067822;28;20112;-57
2022/07/05 08:29:51;;;;;;;0.00;0.00;;;;;;;26.36;43.89;101383.75;5077561;28;20622;-58
2022/07/05 08:32:17;;;;;;;0.00;0.00;;;;;;;26.11;42.84;101374.72;5073306;28;20499;-60
2022/07/05 08:34:43;;;;;;;0.75;0.32;;;;;;;25.89;42.75;101386.41;5066911;28;20066;-61
2022/07/05 08:37:09;;;;;;;0.00;0.00;;;;;;;25.56;43.16;101385.03;5062802;28;20032;-61
2022/07/05 08:39:35;;;;;;;0.00;0.00;;;;;;;25.41;42.34;101383.13;5071510;28;20035;-59
2022/07/05 08:42:01;;;;;;;0.00;0.00;;;;;;;25.39;42.79;101385.53;5073143;28;20036;-59
2022/07/05 08:44:35;;;;;;;0.00;0.00;;;;;;;25.54;41.71;101389.44;5071160;28;20093;-62
2022/07/05 08:47:02;;;;;;;0.00;0.00;;;;;;;25.70;41.03;101383.84;5071759;28;20395;-57
2022/07/05 08:49:30;;;;;;;0.00;0.00;;;;;;;25.90;40.31;101376.09;5078472;28;20020;-61
2022/07/05 08:51:56;;;;;;;0.45;0.32;;;;;;;26.18;40.78;101377.22;5072303;28;20032;-56
2022/07/05 08:54:23;;;;;;;0.00;0.00;;;;;;;26.39;41.19;101377.31;5066181;28;20027;-61
2022/07/05 08:56:50;;;;;;;0.00;0.00;;;;;;;26.34;40.65;101388.94;5071059;28;20067;-59
2022/07/05 08:59:15;;;;;;;0.00;0.00;;;;;;;26.38;41.23;101386.84;5082450;28;20568;-61
2022/07/05 09:01:41;;;;;;;0.17;0.17;;;;;;;26.40;40.80;101380.84;5070293;28;20119;-59
2022/07/05 09:04:09;;;;;;;0.00;0.00;;;;;;;26.22;40.57;101392.47;5084025;28;20484;-59
2022/07/05 09:06:38;;;;;;;0.00;0.00;;;;;;;26.11;38.98;101381.00;5065827;28;20056;-57
2022/07/05 09:09:05;;;;;;;0.00;0.00;;;;;;;26.25;39.09;101390.84;5067506;28;20353;-60
2022/07/05 09:11:39;;;;;;;0.10;0.00;;;;;;;26.50;38.62;101391.53;5070039;28;20024;-56
2022/07/05 09:14:19;;;;;;;0.00;0.00;;;;;;;26.64;39.24;101391.06;5072287;28;20032;-54
2022/07/05 09:16:44;;;;;;;0.00;0.00;;;;;;;26.82;38.50;101381.41;5067294;28;20039;-62
2022/07/05 09:19:10;;;;;;;0.00;0.00;;;;;;;26.93;38.34;101376.28;5067706;28;20392;-62
2022/07/05 09:21:36;;;;;;;0.00;0.00;;;;;;;27.00;38.36;101378.81;5068284;28;20047;-59
2022/07/05 09:24:07;;;;;;;0.00;0.00;;;;;;;26.95;38.23;101377.38;5046821;28;20087;-60
2022/07/05 09:26:35;;;;;;;0.00;0.00;;;;;;;26.83;38.10;101386.50;5067138;28;20032;-61
2022/07/05 09:29:03;;;;;;;0.00;0.00;;;;;;;26.79;37.69;101392.16;5070398;28;20514;-59
2022/07/05 09:31:30;;;;;;;0.00;0.00;;;;;;;26.76;38.17;101373.69;5074380;28;20389;-62
2022/07/05 09:34:16;;;;;;;0.00;0.00;;;;;;;26.92;39.53;101381.06;5051415;28;20397;-63
2022/07/05 09:37:01;;;;;;;0.15;0.00;;;;;;;27.15;39.21;101385.38;5084262;28;20051;-59
2022/07/05 09:39:29;;;;;;;0.00;0.00;;;;;;;27.02;39.15;101381.88;5070857;28;20044;-61
2022/07/05 09:42:19;;;;;;;0.00;0.00;;;;;;;27.03;39.81;101381.44;5071963;28;20073;-62
2022/07/05 09:44:45;;;;;;;0.00;0.00;;;;;;;27.03;39.68;101388.94;5071921;28;20035;-59
2022/07/05 09:47:13;;;;;;;0.00;0.00;;;;;;;26.78;39.99;101385.09;5071734;28;20497;-58
2022/07/05 09:49:43;;;;;;;0.00;0.00;;;;;;;26.42;40.82;101390.22;5061978;28;20078;-59
2022/07/05 09:52:09;;;;;;;0.00;0.00;;;;;;;25.93;41.28;101392.59;5066079;28;20107;-59
2022/07/05 09:54:34;;;;;;;0.00;0.00;;;;;;;25.85;41.48;101380.22;5053526;28;20117;-61
2022/07/05 09:57:00;;;;;;;0.00;0.00;;;;;;;25.92;41.71;101384.72;5070805;28;20471;-60
2022/07/05 09:59:25;;;;;;;0.00;0.00;;;;;;;25.74;40.53;101385.28;5066719;28;20481;-59
2022/07/05 10:01:51;;;;;;;0.00;0.00;;;;;;;25.78;40.68;101399.75;5069233;28;20047;-60
2022/07/05 10:04:18;;;;;;;0.00;0.00;;;;;;;25.87;40.91;101399.09;5069865;28;20408;-59
2022/07/05 10:06:44;;;;;;;0.00;0.00;;;;;;;25.93;41.80;101398.13;5068879;28;20028;-61
2022/07/05 10:09:10;;;;;;;0.00;0.00;;;;;;;26.14;40.75;101388.41;5070970;28;20136;-59
2022/07/05 10:11:44;;;;;;;0.00;0.00;;;;;;;26.19;40.12;101387.84;5066920;28;20060;-62
2022/07/05 10:14:19;;;;;;;0.00;0.00;;;;;;;26.19;41.43;101387.84;5044208;28;20085;-59
2022/07/05 10:16:48;;;;;;;0.00;0.00;;;;;;;26.21;42.21;101401.97;5071117;28;20044;-61
2022/07/05 10:19:19;;;;;;;0.00;0.00;;;;;;;26.18;42.28;101394.59;5063506;28;20035;-61
2022/07/05 10:21:45;;;;;;;0.00;0.00;;;;;;;26.23;41.44;101407.09;5065770;28;20036;-54
2022/07/05 10:24:11;;;;;;;0.00;0.00;;;;;;;26.19;41.17;101404.41;5059993;28;20290;-62
2022/07/05 10:26:39;;;;;;;0.00;0.00;;;;;;;26.19;41.62;101409.94;5065917;28;20036;-59
2022/07/05 10:29:07;;;;;;;0.00;0.00;;;;;;;26.38;40.46;101397.88;5060302;28;20226;-58
2022/07/05 10:31:32;;;;;;;0.00;0.00;;;;;;;26.79;39.82;101408.75;5066592;28;20071;-59
2022/07/05 10:34:07;;;;;;;0.00;0.00;;;;;;;27.14;38.48;101405.97;5067463;28;20119;-59
2022/07/05 10:36:34;;;;;;;0.00;0.00;;;;;;;27.43;39.24;101406.47;5070398;28;20074;-57
2022/07/05 10:39:00;;;;;;;0.00;0.00;;;;;;;27.57;38.65;101403.19;5068655;28;20033;-61
2022/07/05 10:41:29;;;;;;;0.00;0.00;;;;;;;27.82;37.59;101403.00;5068547;28;20024;-61
2022/07/05 10:43:55;;;;;;;0.00;0.00;;;;;;;27.85;38.04;101393.78;5067270;28;20052;-60
2022/07/05 10:46:43;;;;;;;0.25;0.20;;;;;;;28.00;38.00;101389.25;5070090;28;20036;-60
2022/07/05 10:49:16;;;;;;;0.00;0.00;;;;;;;28.27;37.97;101405.97;5059638;28;20318;-59
2022/07/05 10:51:42;;;;;;;0.00;0.00;;;;;;;28.70;35.89;101395.91;5066062;28;20059;-62
2022/07/05 10:54:08;;;;;;;0.00;0.00;;;;;;;28.76;37.20;101385.75;5063401;28;20488;-61
2022/07/05 10:56:34;;;;;;;0.00;0.00;;;;;;;28.49;37.14;101386.47;5065770;28;20032;-60
2022/07/05 10:59:11;;;;;;;0.00;0.00;;;;;;;28.62;36.38;101398.22;5064577;28;20054;-60
2022/07/05 11:01:43;;;;;;;0.00;0.00;;;;;;;28.89;37.38;101389.91;5055144;28;20376;-61
2022/07/05 11:04:19;;;;;;;0.00;0.00;;;;;;;28.97;37.06;101390.34;5065293;28;20032;-61
2022/07/05 11:06:49;;;;;;;0.00;0.00;;;;;;;28.88;37.35;101374.47;5066354;28;20460;-61
2022/07/05 11:09:16;;;;;;;0.10;0.10;;;;;;;29.23;36.35;101386.81;5046842;28;20032;-62
2022/07/05 11:11:43;;;;;;;0.00;0.00;;;;;;;29.34;36.50;101383.56;5048699;28;20102;-61
2022/07/05 11:14:21;;;;;;;0.00;0.00;;;;;;;29.26;35.96;101368.44;5066059;28;20025;-62
2022/07/05 11:17:11;;;;;;;0.00;0.00;;;;;;;29.22;36.52;101370.63;5064667;28;20527;-61
2022/07/05 11:20:05;;;;;;;0.00;0.00;;;;;;;29.33;35.97;101377.22;5051098;28;20046;-62
2022/07/05 11:22:32;;;;;;;0.00;0.00;;;;;;;29.15;36.25;101371.69;5065774;28;20058;-61
2022/07/05 11:24:59;;;;;;;0.08;0.08;;;;;;;29.22;36.96;101371.41;5068316;28;20013;-62
2022/07/05 11:27:25;;;;;;;0.45;0.45;;;;;;;29.25;35.78;101373.22;5066331;28;20032;-61